Time;durP1;ratioP1;P1;durP2;ratioP2;P2;SDS_P1;SDS_P2;PMS_P1;PMS_P2;Temp;Humidity;BMP_temperature;BMP_pressure;BME280_temperature;BME280_humidity;BME280_pressure;Samples;Min_cycle;Max_cycle;Signal;HPM_P1;HPM_P2
2023/11/06 00:00:48;;;;;;;0.35;0.35;;;;;;;10.80;84.92;98050.59;5055822;28;20091;-66
2023/11/06 00:03:17;;;;;;;1.05;0.82;;;;;;;10.77;84.98;98052.31;5055942;28;20079;-68
2023/11/06 00:05:46;;;;;;;0.77;0.77;;;;;;;10.70;84.22;98055.91;5055524;28;20069;-68
2023/11/06 00:08:15;;;;;;;0.30;0.30;;;;;;;10.75;83.94;98059.19;5055384;28;20285;-67
2023/11/06 00:10:44;;;;;;;0.30;0.30;;;;;;;10.75;83.42;98069.38;5055349;28;20090;-68
2023/11/06 00:13:14;;;;;;;0.35;0.35;;;;;;;10.76;83.42;98075.34;5055498;28;20372;-66
2023/11/06 00:15:43;;;;;;;0.65;0.65;;;;;;;10.70;82.93;98071.22;5055539;28;20049;-68
2023/11/06 00:18:13;;;;;;;0.43;0.43;;;;;;;10.75;82.94;98084.69;5054349;28;20499;-68
2023/11/06 00:20:42;;;;;;;0.60;0.60;;;;;;;10.75;82.53;98094.91;5055877;28;20207;-66
2023/11/06 00:23:11;;;;;;;0.30;0.30;;;;;;;10.72;82.53;98097.53;5054693;28;20386;-66
2023/11/06 00:25:40;;;;;;;0.30;0.30;;;;;;;10.70;82.49;98106.13;5055377;28;20506;-67
2023/11/06 00:28:09;;;;;;;0.30;0.30;;;;;;;10.67;82.75;98111.31;5055237;28;20044;-68
2023/11/06 00:30:38;;;;;;;0.30;0.30;;;;;;;10.65;82.25;98115.63;5054686;28;20136;-69
2023/11/06 00:33:06;;;;;;;0.30;0.30;;;;;;;10.62;82.41;98119.09;5055737;28;20128;-68
2023/11/06 00:35:37;;;;;;;0.20;0.20;;;;;;;10.64;82.11;98122.44;5053966;28;20120;-68
2023/11/06 00:38:06;;;;;;;0.20;0.20;;;;;;;10.63;81.75;98133.50;5054888;28;20367;-69
2023/11/06 00:40:34;;;;;;;0.30;0.30;;;;;;;10.63;81.28;98136.03;5054854;28;20053;-67
2023/11/06 00:43:03;;;;;;;0.30;0.30;;;;;;;10.63;81.28;98136.03;5054823;28;20374;-66
2023/11/06 00:45:32;;;;;;;0.30;0.30;;;;;;;10.68;80.58;98134.22;5054519;28;20090;-67
2023/11/06 00:48:01;;;;;;;0.40;0.40;;;;;;;10.74;80.04;98138.31;5054523;28;20285;-68
2023/11/06 00:50:30;;;;;;;0.30;0.30;;;;;;;10.75;79.70;98150.19;5054394;28;20053;-68
2023/11/06 00:53:01;;;;;;;0.30;0.30;;;;;;;10.74;79.63;98151.94;5054890;28;20044;-69
2023/11/06 00:55:30;;;;;;;0.20;0.20;;;;;;;10.71;79.71;98174.97;5053649;28;20395;-67
2023/11/06 00:57:58;;;;;;;0.30;0.30;;;;;;;10.76;78.79;98172.28;5054479;28;20124;-69
2023/11/06 01:00:29;;;;;;;0.40;0.40;;;;;;;10.75;78.96;98171.44;5053277;28;20045;-67
2023/11/06 01:02:58;;;;;;;0.40;0.40;;;;;;;10.70;78.75;98173.28;5054809;28;20056;-68
2023/11/06 01:05:27;;;;;;;0.30;0.30;;;;;;;10.72;78.79;98191.94;5054283;28;20099;-67
2023/11/06 01:07:57;;;;;;;0.22;0.22;;;;;;;10.72;78.28;98191.94;5054316;28;20083;-67
2023/11/06 01:10:28;;;;;;;0.30;0.30;;;;;;;10.67;78.25;98193.78;5054301;28;20049;-68
2023/11/06 01:12:59;;;;;;;0.30;0.30;;;;;;;10.68;78.24;98200.53;5054213;28;20060;-68
2023/11/06 01:15:29;;;;;;;0.30;0.30;;;;;;;10.75;77.92;98216.53;5054250;28;20052;-68
2023/11/06 01:17:58;;;;;;;0.30;0.30;;;;;;;10.74;77.73;98220.81;5052831;28;20041;-68
2023/11/06 01:20:27;;;;;;;0.38;0.38;;;;;;;10.72;77.86;98226.84;5054570;28;20368;-68
2023/11/06 01:22:56;;;;;;;0.40;0.40;;;;;;;10.74;78.12;98230.19;5053066;28;20036;-69
2023/11/06 01:25:25;;;;;;;0.40;0.40;;;;;;;10.69;77.75;98232.84;5052959;28;20041;-68
2023/11/06 01:27:56;;;;;;;0.30;0.30;;;;;;;10.73;77.66;98244.66;5052833;28;20049;-67
2023/11/06 01:30:25;;;;;;;0.30;0.30;;;;;;;10.73;77.60;98242.09;5054220;28;20045;-69
2023/11/06 01:32:54;;;;;;;0.30;0.30;;;;;;;10.75;77.40;98244.59;5052701;28;20045;-68
2023/11/06 01:35:25;;;;;;;0.40;0.40;;;;;;;10.76;77.37;98249.69;5053806;28;20044;-68
2023/11/06 01:37:54;;;;;;;0.30;0.30;;;;;;;10.78;77.29;98262.41;5053813;28;20049;-68
2023/11/06 01:40:23;;;;;;;0.30;0.30;;;;;;;10.78;77.00;98260.69;5052448;28;20060;-69
2023/11/06 01:42:52;;;;;;;0.30;0.30;;;;;;;10.76;77.15;98253.94;5053159;28;20044;-67
2023/11/06 01:45:22;;;;;;;0.40;0.40;;;;;;;10.65;77.04;98256.75;5053644;28;20471;-68
2023/11/06 01:47:51;;;;;;;0.30;0.30;;;;;;;10.54;77.41;98256.16;5052305;28;20047;-69
2023/11/06 01:50:21;;;;;;;0.30;0.30;;;;;;;10.45;77.31;98255.56;5053669;28;20052;-69
2023/11/06 01:52:50;;;;;;;;;;;;;;;10.38;78.00;98262.50;5054250;28;20033;-69
2023/11/06 01:55:19;;;;;;;0.40;0.40;;;;;;;10.40;77.89;98270.13;5053509;28;19963;-69
2023/11/06 01:57:48;;;;;;;0.30;0.30;;;;;;;10.39;77.65;98273.56;5052328;28;20040;-67
2023/11/06 02:00:19;;;;;;;0.28;0.28;;;;;;;10.35;77.64;98267.66;5052276;28;20049;-68
2023/11/06 02:02:50;;;;;;;0.40;0.40;;;;;;;10.29;77.52;98282.28;5053496;28;20483;-68
2023/11/06 02:05:19;;;;;;;0.60;0.60;;;;;;;10.12;77.59;98275.00;5054062;28;20156;-69
2023/11/06 02:07:48;;;;;;;0.30;0.30;;;;;;;10.08;77.94;98283.53;5053565;28;20131;-68
2023/11/06 02:10:17;;;;;;;0.30;0.30;;;;;;;9.99;78.13;98292.22;5053386;28;20049;-69
2023/11/06 02:12:48;;;;;;;0.30;0.30;;;;;;;9.90;78.82;98297.50;5052360;28;20043;-70
2023/11/06 02:15:17;;;;;;;0.20;0.20;;;;;;;9.84;78.97;98306.97;5052174;28;20523;-68
2023/11/06 02:17:46;;;;;;;0.38;0.38;;;;;;;9.80;78.90;98308.75;5052178;28;20102;-68
2023/11/06 02:20:17;;;;;;;1.23;1.15;;;;;;;9.76;78.90;98311.41;5052404;28;20045;-69
2023/11/06 02:22:45;;;;;;;0.30;0.30;;;;;;;9.72;79.31;98310.59;5053588;28;20053;-69
2023/11/06 02:25:16;;;;;;;0.20;0.20;;;;;;;9.74;79.33;98308.84;5053273;28;20056;-68
2023/11/06 02:27:44;;;;;;;0.22;0.22;;;;;;;9.72;79.63;98315.69;5052074;28;20277;-69
2023/11/06 02:30:13;;;;;;;0.30;0.30;;;;;;;9.70;80.24;98321.69;5052580;28;20390;-69
2023/11/06 02:32:42;;;;;;;0.40;0.40;;;;;;;9.72;79.74;98325.03;5052086;28;20041;-69
2023/11/06 02:35:11;;;;;;;0.30;0.30;;;;;;;9.71;80.31;98328.47;5051982;28;20045;-69
2023/11/06 02:37:41;;;;;;;0.30;0.30;;;;;;;9.67;79.73;98322.59;5053664;28;20395;-68
2023/11/06 02:40:12;;;;;;;0.43;0.43;;;;;;;9.57;80.34;98333.00;5053056;28;20053;-68
2023/11/06 02:42:43;;;;;;;0.30;0.30;;;;;;;9.49;80.48;98340.75;5051932;28;20072;-67
2023/11/06 02:45:13;;;;;;;0.30;0.30;;;;;;;9.48;80.17;98351.00;5053404;28;20491;-67
2023/11/06 02:47:41;;;;;;;0.30;0.30;;;;;;;9.34;80.52;98359.69;5053778;28;20049;-68
2023/11/06 02:50:12;;;;;;;0.43;0.43;;;;;;;9.22;81.31;98352.25;5034992;28;20168;-70
2023/11/06 02:52:42;;;;;;;0.30;0.30;;;;;;;9.14;80.96;98351.53;5053318;28;20055;-68
2023/11/06 02:55:11;;;;;;;0.35;0.35;;;;;;;9.01;81.68;98347.53;5055687;28;20048;-67
2023/11/06 02:57:40;;;;;;;0.40;0.40;;;;;;;9.08;81.82;98366.94;5056823;28;20049;-68
2023/11/06 03:00:12;;;;;;;0.30;0.30;;;;;;;8.98;81.42;98375.56;5055466;28;20499;-70
2023/11/06 03:02:41;;;;;;;0.20;0.20;;;;;;;8.91;80.80;98376.53;5056756;28;20561;-69
2023/11/06 03:05:11;;;;;;;0.30;0.30;;;;;;;8.87;81.97;98389.31;5056833;28;20491;-69
2023/11/06 03:07:40;;;;;;;0.30;0.30;;;;;;;8.87;82.17;98397.78;5055676;28;20049;-70
2023/11/06 03:10:10;;;;;;;0.22;0.22;;;;;;;8.93;82.37;98394.28;5056823;28;20114;-69
2023/11/06 03:12:39;;;;;;;0.30;0.30;;;;;;;8.90;82.06;98397.72;5056429;28;20494;-67
2023/11/06 03:15:11;;;;;;;0.40;0.40;;;;;;;8.67;81.70;98405.69;5056353;28;20053;-68
2023/11/06 03:17:41;;;;;;;0.20;0.20;;;;;;;8.53;81.88;98406.75;5056632;28;20045;-66
2023/11/06 03:20:11;;;;;;;0.30;0.30;;;;;;;8.38;81.58;98412.00;5055149;28;20037;-67
2023/11/06 03:22:40;;;;;;;0.20;0.20;;;;;;;8.25;81.69;98413.00;5056823;28;20049;-68
2023/11/06 03:25:10;;;;;;;0.30;0.30;;;;;;;8.11;82.68;98411.44;5055036;28;20037;-67
2023/11/06 03:27:38;;;;;;;0.28;0.28;;;;;;;7.93;83.24;98387.97;5056108;28;20071;-69
2023/11/06 03:30:09;;;;;;;0.25;0.25;;;;;;;8.04;82.63;98422.53;5056145;28;20037;-67
2023/11/06 03:32:39;;;;;;;0.20;0.20;;;;;;;7.94;83.85;98426.03;5054949;28;20044;-66
2023/11/06 03:35:08;;;;;;;0.30;0.30;;;;;;;7.85;83.65;98426.13;5054868;28;20053;-67
2023/11/06 03:37:37;;;;;;;0.30;0.30;;;;;;;7.76;83.49;98441.47;5056393;28;20128;-69
2023/11/06 03:40:09;;;;;;;0.40;0.40;;;;;;;7.64;83.54;98431.44;5056291;28;20041;-68
2023/11/06 03:42:38;;;;;;;0.30;0.30;;;;;;;7.67;83.46;98441.56;5055762;28;20285;-67
2023/11/06 03:45:07;;;;;;;0.27;0.27;;;;;;;7.59;84.35;98438.25;5055961;28;20080;-66
2023/11/06 03:47:37;;;;;;;;;;;;;;;7.68;84.73;98455.94;5056504;28;20442;-66
2023/11/06 03:50:08;;;;;;;;;;;;;;;7.69;84.05;98460.16;5056235;28;19920;-67
2023/11/06 03:52:37;;;;;;;0.30;0.30;;;;;;;7.68;84.14;98468.63;5055739;28;19975;-69
2023/11/06 03:55:07;;;;;;;0.30;0.30;;;;;;;7.62;84.49;98456.00;5055955;28;20045;-68
2023/11/06 03:57:36;;;;;;;0.40;0.40;;;;;;;7.61;84.20;98461.91;5055668;28;20058;-67
2023/11/06 04:00:07;;;;;;;0.70;0.70;;;;;;;7.57;84.97;98470.44;5055658;28;20112;-67
2023/11/06 04:02:38;;;;;;;0.30;0.30;;;;;;;7.51;84.22;98474.72;5055615;28;20313;-68
2023/11/06 04:05:09;;;;;;;0.40;0.40;;;;;;;7.44;84.96;98468.81;5054713;28;20507;-68
2023/11/06 04:07:38;;;;;;;0.20;0.20;;;;;;;7.37;84.58;98483.25;5055796;28;20490;-67
2023/11/06 04:10:07;;;;;;;0.67;0.67;;;;;;;7.36;84.39;98490.91;5055404;28;20153;-67
2023/11/06 04:12:36;;;;;;;0.30;0.30;;;;;;;7.31;85.25;98483.31;5055971;28;20128;-67
2023/11/06 04:15:06;;;;;;;0.40;0.40;;;;;;;7.37;85.26;98506.09;5055351;28;20048;-68
2023/11/06 04:17:35;;;;;;;0.30;0.30;;;;;;;7.38;85.11;98509.50;5055378;28;20045;-69
2023/11/06 04:20:05;;;;;;;0.30;0.30;;;;;;;7.41;84.84;98517.09;5055510;28;20390;-69
2023/11/06 04:22:36;;;;;;;0.30;0.30;;;;;;;7.46;84.56;98525.53;5055576;28;20605;-68
2023/11/06 04:25:06;;;;;;;0.98;0.95;;;;;;;7.42;85.16;98528.91;5055827;28;20073;-69
2023/11/06 04:27:35;;;;;;;0.32;0.32;;;;;;;7.38;85.29;98540.81;5055637;28;20487;-68
2023/11/06 04:30:04;;;;;;;0.40;0.40;;;;;;;7.33;85.34;98546.75;5054975;28;20044;-69
2023/11/06 04:32:33;;;;;;;0.38;0.38;;;;;;;7.29;84.89;98545.09;5055598;28;20049;-68
2023/11/06 04:35:02;;;;;;;0.40;0.40;;;;;;;7.17;84.58;98551.09;5053901;28;20041;-69
2023/11/06 04:37:31;;;;;;;0.40;0.40;;;;;;;7.19;85.19;98556.13;5054926;28;20278;-69
2023/11/06 04:40:02;;;;;;;0.50;0.50;;;;;;;7.23;84.36;98566.25;5055051;28;20045;-68
2023/11/06 04:42:32;;;;;;;0.20;0.20;;;;;;;7.16;84.40;98569.69;5054004;28;20045;-69
2023/11/06 04:45:00;;;;;;;0.40;0.40;;;;;;;7.16;84.33;98578.97;5054947;28;20120;-68
2023/11/06 04:47:29;;;;;;;0.30;0.30;;;;;;;7.07;84.57;98579.03;5054552;28;20045;-69
2023/11/06 04:49:58;;;;;;;0.30;0.30;;;;;;;7.04;84.19;98576.50;5054367;28;20075;-68
2023/11/06 04:52:28;;;;;;;0.30;0.30;;;;;;;6.86;84.66;98569.84;5054947;28;20053;-68
2023/11/06 04:54:57;;;;;;;0.60;0.60;;;;;;;6.87;84.78;98576.56;5053728;28;20144;-68
2023/11/06 04:57:27;;;;;;;0.40;0.40;;;;;;;6.81;84.83;98591.81;5055085;28;20309;-68
2023/11/06 04:59:56;;;;;;;0.30;0.30;;;;;;;6.78;84.84;98581.69;5055007;28;20047;-67
2023/11/06 05:02:25;;;;;;;0.30;0.30;;;;;;;6.77;85.64;98579.16;5054683;28;20121;-68
2023/11/06 05:04:54;;;;;;;;;;;;;;;6.83;85.61;98594.34;5053566;28;20037;-67
2023/11/06 05:07:23;;;;;;;0.30;0.30;;;;;;;6.82;85.16;98597.72;5054078;28;19921;-68
2023/11/06 05:09:51;;;;;;;0.47;0.47;;;;;;;6.79;85.82;98597.75;5054154;28;20072;-69
2023/11/06 05:12:20;;;;;;;0.30;0.30;;;;;;;6.89;86.51;98614.59;5054260;28;20128;-68
2023/11/06 05:14:51;;;;;;;0.40;0.40;;;;;;;6.82;86.21;98607.84;5054215;28;20048;-69
2023/11/06 05:17:19;;;;;;;0.38;0.38;;;;;;;6.81;86.03;98611.25;5053262;28;20132;-69
2023/11/06 05:19:49;;;;;;;0.30;0.30;;;;;;;6.79;86.71;98612.97;5054097;28;20131;-69
2023/11/06 05:22:18;;;;;;;0.30;0.30;;;;;;;6.80;86.43;98609.56;5054723;28;20071;-68
2023/11/06 05:24:47;;;;;;;0.30;0.30;;;;;;;6.75;86.68;98618.03;5053977;28;20045;-68
2023/11/06 05:27:16;;;;;;;0.40;0.40;;;;;;;6.75;86.26;98618.03;5053944;28;20044;-68
2023/11/06 05:29:45;;;;;;;0.40;0.40;;;;;;;6.69;86.44;98619.75;5054142;28;20065;-68
2023/11/06 05:32:16;;;;;;;0.32;0.32;;;;;;;6.63;86.10;98628.19;5054142;28;20364;-68
2023/11/06 05:34:45;;;;;;;0.38;0.38;;;;;;;6.55;86.54;98626.53;5053016;28;20040;-68
2023/11/06 05:37:14;;;;;;;0.43;0.43;;;;;;;6.45;86.29;98628.25;5052666;28;20045;-67
2023/11/06 05:39:45;;;;;;;0.30;0.30;;;;;;;6.38;86.41;98626.53;5053993;28;20053;-69
2023/11/06 05:42:15;;;;;;;0.30;0.30;;;;;;;6.52;86.55;98642.59;5053999;28;20045;-70
2023/11/06 05:44:43;;;;;;;0.77;0.77;;;;;;;6.59;86.98;98635.81;5053649;28;20044;-68
2023/11/06 05:47:12;;;;;;;1.10;0.80;;;;;;;6.55;86.06;98640.03;5053594;28;20099;-70
2023/11/06 05:49:43;;;;;;;0.30;0.30;;;;;;;6.53;86.29;98641.72;5053402;28;20095;-67
2023/11/06 05:52:13;;;;;;;0.30;0.30;;;;;;;6.53;86.52;98641.72;5053561;28;20274;-68
2023/11/06 05:54:43;;;;;;;0.40;0.40;;;;;;;6.54;86.92;98642.59;5053829;28;20053;-67
2023/11/06 05:57:12;;;;;;;0.43;0.43;;;;;;;6.53;86.76;98654.41;5053553;28;20049;-68
2023/11/06 05:59:41;;;;;;;0.70;0.70;;;;;;;6.44;86.29;98667.09;5052228;28;20044;-69
2023/11/06 06:02:09;;;;;;;0.60;0.60;;;;;;;6.47;86.83;98669.63;5053419;28;20131;-67
2023/11/06 06:04:39;;;;;;;0.75;0.75;;;;;;;6.43;87.02;98674.72;5053478;28;20045;-68
2023/11/06 06:07:10;;;;;;;0.40;0.40;;;;;;;6.41;86.84;98686.50;5052238;28;20055;-67
2023/11/06 06:09:41;;;;;;;0.70;0.70;;;;;;;6.46;87.42;98695.81;5053580;28;20048;-68
2023/11/06 06:12:11;;;;;;;0.35;0.35;;;;;;;6.54;87.09;98705.94;5053942;28;20053;-67
2023/11/06 06:14:40;;;;;;;0.40;0.40;;;;;;;6.61;86.54;98698.34;5053524;28;20041;-67
2023/11/06 06:17:09;;;;;;;0.30;0.30;;;;;;;6.68;87.24;98707.63;5053330;28;20045;-66
2023/11/06 06:19:37;;;;;;;0.30;0.30;;;;;;;6.71;87.40;98716.91;5053382;28;20040;-68
2023/11/06 06:22:06;;;;;;;0.40;0.40;;;;;;;6.75;87.23;98719.44;5053441;28;20352;-68
2023/11/06 06:24:36;;;;;;;1.70;1.33;;;;;;;6.83;87.42;98721.13;5053308;28;20390;-68
2023/11/06 06:27:05;;;;;;;0.40;0.40;;;;;;;6.87;87.24;98733.78;5053265;28;20090;-67
2023/11/06 06:29:34;;;;;;;1.38;1.27;;;;;;;6.96;87.68;98727.88;5057222;28;20045;-69
2023/11/06 06:32:03;;;;;;;0.28;0.28;;;;;;;7.20;87.57;98728.66;5057385;28;20037;-67
2023/11/06 06:34:32;;;;;;;0.40;0.40;;;;;;;7.48;88.01;98744.66;5057477;28;20558;-68
2023/11/06 06:37:01;;;;;;;0.28;0.28;;;;;;;7.71;88.00;98747.94;5057058;28;20045;-67
2023/11/06 06:39:30;;;;;;;0.70;0.70;;;;;;;7.84;87.89;98749.56;5057092;28;20045;-69
2023/11/06 06:42:00;;;;;;;1.85;1.65;;;;;;;7.91;88.00;98751.22;5057000;28;20091;-68
2023/11/06 06:44:29;;;;;;;0.40;0.40;;;;;;;8.13;88.08;98760.41;5056920;28;20045;-68
2023/11/06 06:46:58;;;;;;;0.50;0.50;;;;;;;8.31;87.95;98756.09;5056903;28;20128;-69
2023/11/06 06:49:27;;;;;;;;;;;;;;;8.51;88.09;98759.34;5056016;28;20045;-67
2023/11/06 06:51:56;;;;;;;0.30;0.30;;;;;;;8.65;87.42;98747.38;5056723;28;20003;-69
2023/11/06 06:54:25;;;;;;;0.52;0.52;;;;;;;8.93;87.21;98768.31;5059720;28;20045;-69
2023/11/06 06:56:55;;;;;;;2.85;1.35;;;;;;;9.12;87.74;98768.13;5057922;28;20072;-67
2023/11/06 06:59:26;;;;;;;0.55;0.55;;;;;;;9.31;87.13;98777.28;5055808;28;20558;-67
2023/11/06 07:01:56;;;;;;;0.40;0.40;;;;;;;9.53;87.40;98782.13;5057184;28;20131;-67
2023/11/06 07:04:25;;;;;;;0.70;0.70;;;;;;;9.69;87.16;98778.56;5059921;28;20045;-68
2023/11/06 07:06:53;;;;;;;1.27;0.97;;;;;;;9.80;86.27;98790.31;5077015;28;20048;-68
2023/11/06 07:09:24;;;;;;;0.30;0.30;;;;;;;9.91;86.32;98787.66;5075763;28;20044;-69
2023/11/06 07:11:52;;;;;;;0.50;0.50;;;;;;;9.99;85.43;98784.13;5072358;28;20068;-69
2023/11/06 07:14:22;;;;;;;1.05;0.98;;;;;;;10.13;85.33;98796.72;5075036;28;20075;-70
2023/11/06 07:16:53;;;;;;;0.25;0.25;;;;;;;10.25;84.46;98791.44;5076374;28;20049;-69
2023/11/06 07:19:22;;;;;;;0.60;0.60;;;;;;;10.37;83.97;98805.72;5076739;28;20044;-68
2023/11/06 07:21:51;;;;;;;0.30;0.30;;;;;;;10.47;83.71;98802.19;5075062;28;20045;-68
2023/11/06 07:24:20;;;;;;;0.30;0.30;;;;;;;10.55;83.56;98808.88;5075065;28;20044;-68
2023/11/06 07:26:49;;;;;;;0.55;0.55;;;;;;;10.66;83.34;98809.56;5076263;28;20135;-68
2023/11/06 07:29:17;;;;;;;0.32;0.32;;;;;;;10.72;82.61;98809.44;5060137;28;20066;-68
2023/11/06 07:31:46;;;;;;;0.60;0.60;;;;;;;10.77;82.27;98807.66;5056261;28;20044;-68
2023/11/06 07:34:17;;;;;;;0.50;0.50;;;;;;;10.82;81.70;98809.34;5056394;28;20044;-68
2023/11/06 07:36:50;;;;;;;0.30;0.30;;;;;;;10.90;81.64;98807.47;5055265;28;20045;-69
2023/11/06 07:39:19;;;;;;;0.70;0.65;;;;;;;10.63;80.96;98763.66;5056485;28;20053;-67
2023/11/06 07:41:48;;;;;;;0.40;0.40;;;;;;;11.03;80.51;98824.31;5074906;28;20037;-69
2023/11/06 07:44:21;;;;;;;1.30;1.20;;;;;;;11.09;80.21;98824.19;5076038;28;20056;-68
2023/11/06 07:46:50;;;;;;;1.27;1.17;;;;;;;11.15;79.84;98824.09;5076067;28;20429;-68
2023/11/06 07:49:20;;;;;;;0.50;0.50;;;;;;;11.21;79.62;98834.19;5073054;28;20591;-68
2023/11/06 07:51:49;;;;;;;5.50;1.85;;;;;;;11.32;79.77;98837.44;5053659;28;20290;-69
2023/11/06 07:54:18;;;;;;;0.53;0.53;;;;;;;11.26;79.22;98814.53;5055751;28;20065;-69
2023/11/06 07:56:48;;;;;;;0.73;0.73;;;;;;;11.44;79.17;98837.22;5055954;28;20437;-68
2023/11/06 07:59:17;;;;;;;0.30;0.30;;;;;;;11.57;78.93;98846.31;5057161;28;20041;-68
2023/11/06 08:01:46;;;;;;;0.30;0.30;;;;;;;11.66;78.42;98848.72;5062125;28;20491;-68
2023/11/06 08:04:16;;;;;;;1.00;0.97;;;;;;;11.74;77.89;98846.91;5054609;28;20044;-69
2023/11/06 08:06:47;;;;;;;0.40;0.40;;;;;;;11.85;77.07;98854.38;5055747;28;20095;-70
2023/11/06 08:09:15;;;;;;;11.77;1.20;;;;;;;11.94;76.70;98855.03;5054651;28;20037;-67
2023/11/06 08:11:44;;;;;;;1.08;0.95;;;;;;;12.05;76.46;98858.22;5062078;28;20036;-69
2023/11/06 08:14:13;;;;;;;0.65;0.65;;;;;;;12.20;76.26;98861.34;5075254;28;20043;-68
2023/11/06 08:16:42;;;;;;;1.27;1.10;;;;;;;12.35;76.04;98868.69;5065134;28;20060;-67
2023/11/06 08:19:13;;;;;;;0.40;0.40;;;;;;;12.47;75.58;98865.88;5055223;28;20048;-68
2023/11/06 08:21:42;;;;;;;0.20;0.20;;;;;;;12.52;75.52;98862.34;5055198;28;20104;-68
2023/11/06 08:24:12;;;;;;;0.30;0.30;;;;;;;12.62;74.31;98865.56;5065310;28;20036;-68
2023/11/06 08:26:43;;;;;;;0.40;0.40;;;;;;;12.68;73.84;98870.53;5075179;28;20113;-70
2023/11/06 08:29:12;;;;;;;1.00;0.75;;;;;;;12.75;74.21;98867.81;5075368;28;20395;-70
2023/11/06 08:31:41;;;;;;;;;;;;;;;12.95;73.80;98875.03;5075332;28;20102;-70
2023/11/06 08:34:12;;;;;;;0.20;0.20;;;;;;;13.07;73.35;98885.03;5073840;28;19920;-70
2023/11/06 08:36:44;;;;;;;0.30;0.30;;;;;;;13.21;72.59;98895.78;5074978;28;20048;-68
2023/11/06 08:39:17;;;;;;;0.30;0.30;;;;;;;13.31;72.45;98896.41;5074829;28;20053;-69
2023/11/06 08:41:46;;;;;;;0.68;0.68;;;;;;;13.41;71.80;98896.13;5075080;28;20040;-69
2023/11/06 08:44:15;;;;;;;0.67;0.63;;;;;;;13.52;71.78;98905.28;5067061;28;20551;-70
2023/11/06 08:46:44;;;;;;;0.73;0.73;;;;;;;13.61;71.29;98907.59;5054305;28;20398;-69
2023/11/06 08:49:14;;;;;;;1.70;0.97;;;;;;;13.68;71.28;98906.56;5053956;28;20029;-68
2023/11/06 08:51:50;;;;;;;3.97;2.05;;;;;;;13.76;70.89;98907.22;5067761;28;20052;-71
2023/11/06 08:54:21;;;;;;;0.38;0.38;;;;;;;13.86;69.95;98914.66;5074382;28;20067;-70
2023/11/06 08:56:52;;;;;;;1.70;1.10;;;;;;;13.94;69.74;98922.16;5074464;28;20443;-69
2023/11/06 08:59:20;;;;;;;0.40;0.40;;;;;;;14.03;69.04;98921.91;5074649;28;20431;-71
2023/11/06 09:01:51;;;;;;;0.60;0.60;;;;;;;14.14;68.79;98930.13;5059594;28;20498;-70
2023/11/06 09:04:20;;;;;;;0.40;0.40;;;;;;;14.27;68.98;98931.50;5053203;28;20045;-70
2023/11/06 09:06:49;;;;;;;0.30;0.30;;;;;;;14.39;68.94;98931.19;5054207;28;20047;-70
2023/11/06 09:09:18;;;;;;;0.95;0.65;;;;;;;14.51;68.25;98925.72;5054137;28;20049;-71
2023/11/06 09:11:49;;;;;;;0.32;0.32;;;;;;;14.62;67.39;98933.94;5058677;28;20051;-70
2023/11/06 09:14:18;;;;;;;0.60;0.60;;;;;;;14.63;66.78;98937.34;5074196;28;20139;-70
2023/11/06 09:16:47;;;;;;;0.30;0.30;;;;;;;14.67;66.81;98942.34;5074478;28;20052;-69
2023/11/06 09:19:18;;;;;;;0.40;0.40;;;;;;;14.66;66.53;98945.78;5073168;28;20492;-69
2023/11/06 09:21:47;;;;;;;0.30;0.30;;;;;;;14.76;66.04;98946.34;5074161;28;20455;-70
2023/11/06 09:24:16;;;;;;;0.30;0.30;;;;;;;14.80;65.69;98935.13;5074293;28;20040;-70
2023/11/06 09:26:46;;;;;;;0.40;0.40;;;;;;;14.85;64.90;98950.41;5072876;28;20123;-71
2023/11/06 09:29:16;;;;;;;0.43;0.43;;;;;;;14.99;65.73;98950.84;5053879;28;20045;-70
2023/11/06 09:31:45;;;;;;;0.40;0.40;;;;;;;15.00;65.55;98935.34;5053792;28;20053;-70
2023/11/06 09:34:14;;;;;;;0.32;0.32;;;;;;;15.19;65.25;98951.03;5054053;28;20060;-68
2023/11/06 09:36:43;;;;;;;0.40;0.40;;;;;;;15.28;64.59;98948.22;5053657;28;20136;-71
2023/11/06 09:39:12;;;;;;;0.40;0.40;;;;;;;15.36;64.28;98948.78;5053686;28;20076;-70
2023/11/06 09:41:40;;;;;;;0.50;0.50;;;;;;;15.34;63.60;98940.28;5053481;28;20029;-68
2023/11/06 09:44:10;;;;;;;0.40;0.40;;;;;;;15.36;62.89;98939.34;5053896;28;20491;-69
2023/11/06 09:46:41;;;;;;;0.55;0.55;;;;;;;15.41;63.03;98934.06;5053875;28;20049;-70
2023/11/06 09:49:16;;;;;;;0.43;0.43;;;;;;;15.46;62.53;98934.78;5053076;28;20037;-68
2023/11/06 09:51:51;;;;;;;0.30;0.30;;;;;;;15.55;61.91;98939.63;5053678;28;20095;-69
2023/11/06 09:54:24;;;;;;;0.40;0.40;;;;;;;15.51;60.98;98927.75;5053780;28;20407;-70
2023/11/06 09:56:55;;;;;;;1.02;0.93;;;;;;;15.45;59.89;98932.28;5052946;28;20064;-71
2023/11/06 09:59:24;;;;;;;0.40;0.40;;;;;;;15.43;59.06;98932.28;5054566;28;20417;-67
2023/11/06 10:01:54;;;;;;;0.50;0.50;;;;;;;15.47;58.93;98933.06;5053236;28;20557;-68
2023/11/06 10:04:24;;;;;;;0.50;0.50;;;;;;;15.54;58.71;98939.69;5053989;28;20072;-69
2023/11/06 10:06:53;;;;;;;0.30;0.30;;;;;;;15.55;58.81;98943.94;5053189;28;20057;-69
2023/11/06 10:09:23;;;;;;;0.50;0.50;;;;;;;15.43;59.04;98940.00;5053285;28;20091;-68
2023/11/06 10:11:57;;;;;;;0.40;0.40;;;;;;;15.28;59.13;98949.03;5053445;28;20119;-68
2023/11/06 10:14:39;;;;;;;0.40;0.40;;;;;;;15.20;59.08;98947.59;5053270;28;20049;-68
2023/11/06 10:17:09;;;;;;;;;;;;;;;15.16;59.47;98952.00;5069075;28;20179;-67
2023/11/06 10:19:38;;;;;;;0.60;0.60;;;;;;;15.01;59.71;98949.06;5073020;28;19920;-69
2023/11/06 10:22:16;;;;;;;0.60;0.57;;;;;;;14.81;59.61;98948.78;5073479;28;20036;-69
2023/11/06 10:24:49;;;;;;;0.40;0.40;;;;;;;14.78;60.11;98960.84;5073505;28;20303;-72
2023/11/06 10:27:29;;;;;;;0.70;0.70;;;;;;;14.91;60.39;98955.34;5055698;28;20390;-72
2023/11/06 10:29:59;;;;;;;0.40;0.40;;;;;;;15.28;59.55;98950.78;5052102;28;20063;-73
2023/11/06 10:32:29;;;;;;;0.40;0.40;;;;;;;15.63;59.08;98942.78;5053188;28;20097;-72
2023/11/06 10:35:11;;;;;;;0.60;0.60;;;;;;;15.71;58.79;98939.97;5053365;28;20053;-72
2023/11/06 10:37:41;;;;;;;0.30;0.30;;;;;;;15.75;58.67;98941.53;5072386;28;20051;-72
2023/11/06 10:40:13;;;;;;;0.70;0.70;;;;;;;15.88;58.29;98943.66;5072230;28;20072;-72
2023/11/06 10:42:43;;;;;;;0.40;0.40;;;;;;;16.10;57.29;98944.59;5073192;28;20079;-71
2023/11/06 10:45:14;;;;;;;0.50;0.50;;;;;;;16.17;55.72;98929.81;5072956;28;20052;-72
2023/11/06 10:47:47;;;;;;;1.23;0.60;;;;;;;16.35;54.94;98943.72;5057151;28;20068;-68
2023/11/06 10:50:19;;;;;;;0.40;0.40;;;;;;;16.15;55.40;98935.91;5063781;28;20056;-68
2023/11/06 10:52:53;;;;;;;0.40;0.40;;;;;;;16.34;55.82;98962.69;5072093;28;20040;-66
2023/11/06 10:55:23;;;;;;;0.30;0.30;;;;;;;16.67;55.73;98951.19;5079476;28;20042;-70
2023/11/06 10:58:01;;;;;;;0.43;0.43;;;;;;;17.01;55.93;98961.06;5092991;28;20498;-70
2023/11/06 11:00:31;;;;;;;0.38;0.38;;;;;;;17.19;53.86;98961.19;5076118;28;20041;-72
2023/11/06 11:03:03;;;;;;;0.40;0.40;;;;;;;17.08;52.62;98953.03;5070126;28;20037;-68
2023/11/06 11:05:33;;;;;;;6.32;1.00;;;;;;;17.01;53.03;98946.41;5072916;28;20166;-67
2023/11/06 11:08:05;;;;;;;0.38;0.38;;;;;;;16.62;53.63;98958.22;5067145;28;20053;-68
2023/11/06 11:10:34;;;;;;;0.57;0.57;;;;;;;16.39;54.75;98950.44;5058572;28;20402;-68
2023/11/06 11:13:08;;;;;;;0.35;0.35;;;;;;;16.40;54.79;98957.28;5052207;28;20087;-68
2023/11/06 11:15:41;;;;;;;2.17;1.27;;;;;;;16.51;55.14;98961.19;5055955;28;21893;-69
2023/11/06 11:18:13;;;;;;;0.40;0.40;;;;;;;16.67;54.61;98958.91;5055890;28;20048;-68
2023/11/06 11:20:54;;;;;;;0.40;0.40;;;;;;;16.58;54.03;98946.38;5075228;28;20041;-69
2023/11/06 11:23:35;;;;;;;0.30;0.30;;;;;;;16.47;54.58;98954.44;5076475;28;20063;-69
2023/11/06 11:26:09;;;;;;;0.40;0.40;;;;;;;16.37;54.94;98957.38;5071796;28;20425;-69
2023/11/06 11:28:53;;;;;;;2.33;0.70;;;;;;;16.39;54.82;98960.75;5057864;28;20041;-68
2023/11/06 11:31:36;;;;;;;0.40;0.40;;;;;;;16.78;55.49;98964.50;5056300;28;20053;-69
2023/11/06 11:34:08;;;;;;;0.43;0.43;;;;;;;16.92;55.38;98951.94;5056114;28;20053;-70
2023/11/06 11:36:40;;;;;;;0.50;0.50;;;;;;;17.12;54.56;98959.75;5069443;28;20044;-70
2023/11/06 11:39:14;;;;;;;1.40;1.10;;;;;;;17.10;54.31;98960.69;5076560;28;20037;-70
2023/11/06 11:42:07;;;;;;;1.02;0.95;;;;;;;17.49;54.36;98963.47;5076016;28;20044;-69
2023/11/06 11:44:36;;;;;;;0.60;0.60;;;;;;;17.64;54.03;98957.69;5076117;28;20417;-70
2023/11/06 11:47:06;;;;;;;0.30;0.30;;;;;;;17.44;54.34;98961.88;5058297;28;20491;-70
2023/11/06 11:49:43;;;;;;;;;;;;;;;17.21;54.35;98967.13;5056163;28;20371;-71
2023/11/06 11:52:15;;;;;;;0.40;0.40;;;;;;;16.97;54.96;98959.47;5055820;28;19967;-71